Airport ID:KGOO
Update Time (UTC):07/10/2022 14:52
Wind Speed (Knots):0
Wind Direction (Magnetic):170
Temperature (°C):20
Dew Point (°C):-2
Humidity (%):23
Altimeter (inHg):30.19
Density Altitude (Feet):4200
Visibility:10+
Clouds (Hundreds of feet):CLR
Present Weather:
METAR:METAR KGOO 071450Z AUTO 00000KT 10SM CLR 20/M02 A3019 RMK A01

The data displayed is for advisory purposes only and is not to be used for flight planning or operations.